Time;durP1;ratioP1;P1;durP2;ratioP2;P2;SDS_P1;SDS_P2;PMS_P1;PMS_P2;Temp;Humidity;BMP_temperature;BMP_pressure;BME280_temperature;BME280_humidity;BME280_pressure;Samples;Min_cycle;Max_cycle;Signal;HPM_P1;HPM_P2
2022/03/19 00:01:26;;;;;;;15.55;6.30;;;7.80;99.90;;;;;;6282271;22;20249;-71
2022/03/19 00:03:53;;;;;;;22.67;6.25;;;7.80;99.90;;;;;;6280001;22;20287;-75
2022/03/19 00:06:20;;;;;;;18.02;7.30;;;7.80;99.90;;;;;;6277305;22;20689;-72
2022/03/19 00:08:48;;;;;;;11.60;5.13;;;7.80;99.90;;;;;;6277727;22;20162;-72
2022/03/19 00:11:16;;;;;;;17.15;6.63;;;7.80;99.90;;;;;;6277450;22;20165;-74
2022/03/19 00:13:43;;;;;;;10.65;6.10;;;7.80;99.90;;;;;;6279036;22;20201;-70
2022/03/19 00:16:10;;;;;;;13.10;6.35;;;7.70;99.90;;;;;;6286462;22;20195;-70
2022/03/19 00:18:38;;;;;;;14.45;7.18;;;7.70;99.90;;;;;;6283570;22;20660;-72
2022/03/19 00:21:07;;;;;;;17.60;6.75;;;7.70;99.90;;;;;;6277041;22;20218;-70
2022/03/19 00:23:34;;;;;;;15.00;6.03;;;7.70;99.90;;;;;;6277475;22;20205;-74
2022/03/19 00:26:02;;;;;;;19.63;7.03;;;7.70;99.90;;;;;;6276806;22;20649;-73
2022/03/19 00:28:29;;;;;;;22.08;5.80;;;7.60;99.90;;;;;;6277419;22;20194;-73
2022/03/19 00:30:56;;;;;;;25.67;8.40;;;7.70;99.90;;;;;;6276621;22;20197;-71
2022/03/19 00:33:23;;;;;;;18.23;7.80;;;7.70;99.90;;;;;;6277107;22;20233;-71
2022/03/19 00:35:51;;;;;;;18.45;7.13;;;7.70;99.90;;;;;;6276864;22;20593;-73
2022/03/19 00:38:18;;;;;;;15.80;6.80;;;7.60;99.90;;;;;;6277521;22;20184;-72
2022/03/19 00:40:47;;;;;;;13.70;5.28;;;7.60;99.90;;;;;;6276451;22;20192;-70
2022/03/19 00:43:14;;;;;;;17.13;7.13;;;7.60;99.90;;;;;;6277035;22;20193;-70
2022/03/19 00:45:44;;;;;;;11.38;6.85;;;7.60;99.90;;;;;;6277690;22;20166;-76
2022/03/19 00:48:11;;;;;;;13.30;7.57;;;7.60;99.90;;;;;;6278780;22;20161;-75
2022/03/19 00:50:38;;;;;;;55.40;7.85;;;7.50;99.90;;;;;;6278993;22;20165;-77
2022/03/19 00:53:15;;;;;;;20.88;8.93;;;7.50;99.90;;;;;;6277746;22;20174;-75
2022/03/19 00:55:42;;;;;;;15.88;6.05;;;7.50;99.90;;;;;;6278635;22;20166;-73
2022/03/19 00:58:17;;;;;;;16.80;6.43;;;7.50;99.90;;;;;;6277833;22;20185;-73
2022/03/19 01:00:44;;;;;;;15.35;6.35;;;7.40;99.90;;;;;;6277129;22;20184;-73
2022/03/19 01:03:11;;;;;;;19.42;6.70;;;7.40;99.90;;;;;;6276707;22;20595;-74
2022/03/19 01:05:38;;;;;;;15.13;6.95;;;7.40;99.90;;;;;;6276737;22;20223;-74
2022/03/19 01:08:05;;;;;;;23.08;7.10;;;7.30;99.90;;;;;;6277252;22;20190;-73
2022/03/19 01:10:34;;;;;;;20.83;6.65;;;7.30;99.90;;;;;;6276699;22;20172;-75
2022/03/19 01:13:05;;;;;;;16.30;7.97;;;7.30;99.90;;;;;;6277111;22;20196;-73
2022/03/19 01:16:07;;;;;;;20.40;6.95;;;7.20;99.90;;;;;;6277782;22;20168;-71
2022/03/19 01:18:35;;;;;;;13.43;6.57;;;7.20;99.90;;;;;;6277208;22;20271;-74
2022/03/19 01:21:02;;;;;;;17.20;6.95;;;7.10;99.90;;;;;;6276648;22;20215;-73
2022/03/19 01:23:30;;;;;;;13.45;6.65;;;7.00;99.90;;;;;;6277059;22;20528;-74
2022/03/19 01:25:58;;;;;;;17.48;6.70;;;7.00;99.90;;;;;;6277331;22;20163;-72
2022/03/19 01:28:32;;;;;;;15.13;7.65;;;6.90;99.90;;;;;;6276923;22;20608;-72
2022/03/19 01:30:58;;;;;;;21.35;7.25;;;6.90;99.90;;;;;;6275880;22;20195;-74
2022/03/19 01:33:25;;;;;;;12.63;7.13;;;6.80;99.90;;;;;;6275885;22;20231;-71
2022/03/19 01:35:54;;;;;;;17.42;7.72;;;6.80;99.90;;;;;;6276373;22;20642;-72
2022/03/19 01:38:21;;;;;;;12.30;7.40;;;6.80;99.90;;;;;;6274965;22;20271;-74
2022/03/19 01:40:48;;;;;;;15.25;8.48;;;6.80;99.90;;;;;;6275798;22;20592;-72
2022/03/19 01:43:16;;;;;;;12.65;6.65;;;6.80;99.90;;;;;;6276279;22;20247;-71
2022/03/19 01:45:43;;;;;;;23.80;9.48;;;6.70;99.90;;;;;;6276739;22;20245;-72
2022/03/19 01:48:10;;;;;;;13.10;7.57;;;6.70;99.90;;;;;;6276747;22;20181;-74
2022/03/19 01:50:37;;;;;;;14.73;7.80;;;6.70;99.90;;;;;;6276800;22;20167;-72
2022/03/19 01:53:04;;;;;;;21.23;8.73;;;6.60;99.90;;;;;;6275775;22;20543;-73
2022/03/19 01:55:32;;;;;;;19.75;7.93;;;6.60;99.90;;;;;;6276453;22;20473;-72
2022/03/19 01:58:03;;;;;;;23.45;9.35;;;6.60;99.90;;;;;;6276718;22;20211;-72
2022/03/19 02:00:34;;;;;;;17.73;8.65;;;6.50;99.90;;;;;;6276556;22;20210;-71
2022/03/19 02:03:02;;;;;;;22.27;7.60;;;6.50;99.90;;;;;;6276640;22;20525;-72
2022/03/19 02:05:30;;;;;;;17.73;8.35;;;6.50;99.90;;;;;;6277422;22;20285;-73
2022/03/19 02:07:57;;;;;;;16.55;7.13;;;6.40;99.90;;;;;;6282698;22;20163;-70
2022/03/19 02:10:24;;;;;;;12.65;7.65;;;6.40;99.90;;;;;;6285261;22;20583;-71
2022/03/19 02:12:55;;;;;;;20.48;8.27;;;6.40;99.90;;;;;;6277210;22;20186;-73
2022/03/19 02:15:22;;;;;;;14.05;7.40;;;6.30;99.90;;;;;;6277129;22;20162;-73
2022/03/19 02:17:51;;;;;;;16.95;8.00;;;6.20;99.90;;;;;;6276425;22;20241;-71
2022/03/19 02:20:18;;;;;;;19.90;8.43;;;6.20;99.90;;;;;;6275643;22;20182;-73
2022/03/19 02:25:34;;;;;;;19.73;8.30;;;6.10;99.90;;;;;;6276213;22;20685;-70
2022/03/19 02:25:36;;;;;;;20.73;9.35;;;6.00;99.90;;;;;;6275778;22;20345;-73
2022/03/19 02:28:04;;;;;;;13.85;7.85;;;6.00;99.90;;;;;;6276673;22;20221;-72
2022/03/19 02:30:33;;;;;;;15.25;6.97;;;5.90;99.90;;;;;;6276091;22;20540;-74
2022/03/19 02:33:00;;;;;;;16.52;8.32;;;5.90;99.90;;;;;;6276032;22;20190;-74
2022/03/19 02:35:27;;;;;;;17.65;7.63;;;5.90;99.90;;;;;;6276506;22;20485;-74
2022/03/19 02:37:55;;;;;;;17.15;7.85;;;5.90;99.90;;;;;;6276876;22;20538;-72
2022/03/19 02:40:23;;;;;;;16.95;7.07;;;5.90;99.90;;;;;;6276375;22;20178;-74
2022/03/19 02:42:55;;;;;;;21.85;10.75;;;5.90;99.90;;;;;;6276010;22;20190;-73
2022/03/19 02:45:23;;;;;;;15.20;8.45;;;5.90;99.90;;;;;;6277723;22;20174;-75
2022/03/19 02:47:58;;;;;;;16.38;8.07;;;5.80;99.90;;;;;;6278690;22;20190;-74
2022/03/19 02:50:27;;;;;;;18.65;8.55;;;5.80;99.90;;;;;;6277612;22;20162;-73
2022/03/19 02:52:54;;;;;;;21.85;7.45;;;5.80;99.90;;;;;;6278114;22;20162;-73
2022/03/19 02:55:22;;;;;;;15.60;7.13;;;5.80;99.90;;;;;;6278368;22;20484;-74
2022/03/19 02:57:49;;;;;;;14.93;7.35;;;5.70;99.90;;;;;;6278567;22;20167;-74
2022/03/19 03:00:19;;;;;;;14.45;7.07;;;5.70;99.90;;;;;;6279166;22;20182;-71
2022/03/19 03:02:46;;;;;;;16.20;7.05;;;5.80;99.90;;;;;;6277867;22;20238;-71
2022/03/19 03:05:13;;;;;;;13.25;7.00;;;5.60;99.90;;;;;;6278974;22;20261;-73
2022/03/19 03:07:41;;;;;;;17.60;7.15;;;5.70;99.90;;;;;;6281325;22;20161;-69
2022/03/19 03:10:09;;;;;;;15.85;8.30;;;5.60;99.90;;;;;;6282114;22;20610;-73
2022/03/19 03:12:37;;;;;;;23.35;8.10;;;5.60;99.90;;;;;;6283135;22;20542;-71
2022/03/19 03:15:06;;;;;;;11.30;5.63;;;5.60;99.90;;;;;;6281935;22;20199;-72
2022/03/19 03:17:35;;;;;;;19.02;6.80;;;5.60;99.90;;;;;;6278606;22;20158;-72
2022/03/19 03:20:04;;;;;;;19.75;7.55;;;5.70;99.90;;;;;;6277186;22;20214;-72
2022/03/19 03:22:32;;;;;;;13.90;7.85;;;5.60;99.90;;;;;;6277428;22;20190;-72
2022/03/19 03:24:59;;;;;;;14.40;6.93;;;5.60;99.90;;;;;;6277949;22;20301;-74
2022/03/19 03:27:26;;;;;;;11.98;7.43;;;5.60;99.90;;;;;;6277591;22;20216;-73
2022/03/19 03:29:53;;;;;;;18.83;6.68;;;5.60;99.90;;;;;;6278438;22;20213;-71
2022/03/19 03:32:20;;;;;;;11.07;6.97;;;5.60;99.90;;;;;;6279004;22;20636;-72
2022/03/19 03:34:49;;;;;;;16.73;7.10;;;5.50;99.90;;;;;;6277647;22;20245;-73
2022/03/19 03:37:18;;;;;;;15.65;6.90;;;5.50;99.90;;;;;;6278036;22;20249;-71
2022/03/19 03:39:44;;;;;;;10.52;6.50;;;5.50;99.90;;;;;;6277454;22;20232;-71
2022/03/19 03:42:12;;;;;;;12.85;6.57;;;5.50;99.90;;;;;;6277945;22;20243;-73
2022/03/19 03:44:41;;;;;;;12.95;7.15;;;5.60;99.90;;;;;;6277918;22;20202;-73
2022/03/19 03:47:09;;;;;;;19.85;7.25;;;5.50;99.90;;;;;;6277850;22;20166;-70
2022/03/19 03:49:36;;;;;;;23.05;7.93;;;5.50;99.90;;;;;;6277416;22;20238;-75
2022/03/19 03:52:07;;;;;;;13.82;7.35;;;5.50;99.90;;;;;;6278021;22;20208;-74
2022/03/19 03:54:34;;;;;;;13.55;6.93;;;5.50;99.90;;;;;;6278029;22;20309;-75
2022/03/19 03:57:02;;;;;;;15.23;7.72;;;5.50;99.90;;;;;;6277564;22;20190;-70
2022/03/19 03:59:30;;;;;;;17.88;7.57;;;5.40;99.90;;;;;;6283042;22;20216;-71
2022/03/19 04:01:59;;;;;;;15.07;7.75;;;5.40;99.90;;;;;;6287892;22;20159;-71
2022/03/19 04:04:27;;;;;;;20.75;9.75;;;5.40;99.90;;;;;;6276552;22;20206;-74
2022/03/19 04:06:54;;;;;;;12.85;7.20;;;5.40;99.90;;;;;;6276103;22;20165;-73
2022/03/19 04:09:22;;;;;;;10.75;7.07;;;5.40;99.90;;;;;;6277262;22;20234;-71
2022/03/19 04:11:49;;;;;;;16.45;7.38;;;5.40;99.90;;;;;;6276690;22;20167;-71
2022/03/19 04:14:16;;;;;;;20.83;7.75;;;5.40;99.90;;;;;;6276541;22;20198;-71
2022/03/19 04:16:43;;;;;;;20.23;8.32;;;5.40;99.90;;;;;;6276984;22;20212;-70
2022/03/19 04:19:10;;;;;;;9.65;7.05;;;5.30;99.90;;;;;;6276689;22;20183;-70
2022/03/19 04:21:37;;;;;;;23.85;8.38;;;5.30;99.90;;;;;;6276197;22;20199;-72
2022/03/19 04:24:05;;;;;;;13.93;7.75;;;5.30;99.90;;;;;;6276976;22;20198;-70
2022/03/19 04:26:34;;;;;;;18.83;7.90;;;5.30;99.90;;;;;;6276508;22;20586;-71
2022/03/19 04:29:01;;;;;;;13.20;7.43;;;5.20;99.90;;;;;;6277231;22;20565;-70
2022/03/19 04:31:28;;;;;;;17.55;7.93;;;5.20;99.90;;;;;;6276103;22;20174;-70
2022/03/19 04:33:55;;;;;;;12.65;7.05;;;5.10;99.90;;;;;;6277127;22;20274;-71
2022/03/19 04:36:30;;;;;;;10.68;7.18;;;5.10;99.90;;;;;;6276756;22;20237;-70
2022/03/19 04:38:57;;;;;;;20.25;8.88;;;5.00;99.90;;;;;;6276463;22;20173;-71
2022/03/19 04:41:24;;;;;;;19.00;7.20;;;5.00;99.90;;;;;;6276336;22;20163;-70
2022/03/19 04:43:53;;;;;;;13.75;7.47;;;5.00;99.90;;;;;;6276909;22;20207;-71
2022/03/19 04:46:20;;;;;;;16.85;7.82;;;5.00;99.90;;;;;;6276647;22;20265;-70
2022/03/19 04:48:46;;;;;;;18.40;7.82;;;5.00;99.90;;;;;;6276787;22;20201;-71
2022/03/19 04:51:14;;;;;;;13.98;8.02;;;4.90;99.90;;;;;;6275696;22;20253;-72
2022/03/19 04:53:41;;;;;;;17.45;8.88;;;4.90;99.90;;;;;;6276529;22;20697;-71
2022/03/19 04:56:08;;;;;;;19.83;8.50;;;4.90;99.90;;;;;;6276827;22;20170;-73
2022/03/19 04:58:36;;;;;;;18.95;10.10;;;4.90;99.90;;;;;;6276867;22;20222;-72
2022/03/19 05:01:04;;;;;;;21.92;8.88;;;4.90;99.90;;;;;;6275205;22;20194;-71
2022/03/19 05:03:31;;;;;;;11.40;8.48;;;4.90;99.90;;;;;;6276559;22;20263;-71
2022/03/19 05:05:58;;;;;;;20.75;10.02;;;4.90;99.90;;;;;;6277055;22;20492;-70
2022/03/19 05:08:25;;;;;;;17.58;9.35;;;4.80;99.90;;;;;;6276107;22;20205;-71
2022/03/19 05:13:49;;;;;;;17.20;9.13;;;4.80;99.90;;;;;;6277669;22;20197;-72
2022/03/19 05:16:20;;;;;;;20.40;9.35;;;4.80;99.90;;;;;;6277756;22;20530;-72
2022/03/19 05:18:47;;;;;;;18.83;10.13;;;4.70;99.90;;;;;;6277386;22;20200;-73
2022/03/19 05:21:33;;;;;;;16.92;7.93;;;4.70;99.90;;;;;;6276532;22;20260;-71
2022/03/19 05:24:00;;;;;;;23.40;9.77;;;4.70;99.90;;;;;;6276422;22;20198;-72
2022/03/19 05:26:28;;;;;;;13.43;8.65;;;4.70;99.90;;;;;;6276990;22;20162;-71
2022/03/19 05:28:56;;;;;;;16.15;9.55;;;4.70;99.90;;;;;;6276883;22;20163;-71
2022/03/19 05:31:25;;;;;;;21.85;10.73;;;4.60;99.90;;;;;;6276145;22;20154;-72
2022/03/19 05:36:38;;;;;;;15.93;9.40;;;4.70;99.90;;;;;;6276949;22;20640;-75
2022/03/19 05:39:05;;;;;;;17.17;10.40;;;4.70;99.90;;;;;;6280637;22;20246;-75
2022/03/19 05:41:32;;;;;;;14.93;10.68;;;4.70;99.90;;;;;;6283855;22;20203;-71
2022/03/19 05:43:59;;;;;;;23.52;10.18;;;4.70;99.90;;;;;;6279881;22;21024;-73
2022/03/19 05:46:27;;;;;;;15.93;9.90;;;4.70;99.90;;;;;;6277613;22;20185;-72
2022/03/19 05:48:54;;;;;;;19.35;9.02;;;4.80;99.90;;;;;;6276636;22;20237;-72
2022/03/19 05:51:21;;;;;;;11.75;8.85;;;4.80;99.90;;;;;;6276065;22;20170;-72
2022/03/19 05:53:48;;;;;;;15.55;10.52;;;4.80;99.90;;;;;;6276766;22;20281;-71
2022/03/19 05:56:16;;;;;;;18.85;11.43;;;4.90;99.90;;;;;;6276848;22;20168;-73
2022/03/19 05:58:43;;;;;;;14.10;10.23;;;5.00;99.90;;;;;;6277013;22;20246;-72
2022/03/19 06:01:10;;;;;;;15.57;10.07;;;5.10;99.90;;;;;;6276946;22;20217;-72
2022/03/19 06:03:38;;;;;;;23.75;9.98;;;5.10;99.90;;;;;;6280337;22;20221;-71
2022/03/19 06:06:05;;;;;;;15.02;9.35;;;5.20;99.90;;;;;;6280660;22;20159;-71
2022/03/19 06:08:32;;;;;;;18.92;9.90;;;5.10;99.90;;;;;;6281081;22;20249;-72
2022/03/19 06:10:59;;;;;;;17.90;9.30;;;5.20;99.90;;;;;;6280962;22;20193;-73
2022/03/19 06:13:27;;;;;;;21.00;9.05;;;5.20;99.90;;;;;;6276590;22;20207;-71
2022/03/19 06:15:54;;;;;;;13.43;9.40;;;5.30;99.90;;;;;;6276487;22;20158;-72
2022/03/19 06:18:21;;;;;;;16.40;8.80;;;5.40;99.90;;;;;;6276600;22;20171;-71
2022/03/19 06:20:49;;;;;;;25.38;9.63;;;5.60;99.90;;;;;;6275714;22;20289;-71
2022/03/19 06:23:17;;;;;;;17.20;11.07;;;5.80;99.90;;;;;;6275841;22;20285;-70
2022/03/19 06:25:44;;;;;;;18.98;9.93;;;5.90;99.90;;;;;;6276518;22;20237;-73
2022/03/19 06:28:11;;;;;;;22.67;9.40;;;6.00;99.90;;;;;;6276029;22;20473;-71
2022/03/19 06:30:38;;;;;;;21.67;9.65;;;6.20;99.90;;;;;;6275424;22;20671;-72
2022/03/19 06:33:06;;;;;;;19.45;8.60;;;6.40;99.90;;;;;;6275917;22;20190;-73
2022/03/19 06:38:18;;;;;;;11.25;7.60;;;6.80;99.90;;;;;;6275903;22;20190;-72
2022/03/19 06:40:45;;;;;;;15.50;7.60;;;7.40;99.90;;;;;;6274951;22;20522;-71
2022/03/19 06:43:12;;;;;;;14.43;6.38;;;8.40;99.90;;;;;;6276080;22;20150;-74
2022/03/19 06:45:39;;;;;;;13.07;7.80;;;10.10;99.90;;;;;;6276024;22;20240;-73
2022/03/19 06:48:06;;;;;;;12.30;6.50;;;11.60;99.90;;;;;;6275538;22;20162;-74
2022/03/19 06:50:33;;;;;;;15.60;7.10;;;13.30;99.90;;;;;;6275277;22;20168;-72
2022/03/19 06:53:02;;;;;;;10.63;5.90;;;14.80;96.90;;;;;;6275754;22;20168;-71
2022/03/19 06:55:30;;;;;;;15.57;6.93;;;16.20;92.10;;;;;;6275588;22;20197;-74
2022/03/19 06:57:57;;;;;;;16.53;7.77;;;17.10;88.50;;;;;;6276093;22;20385;-73
2022/03/19 07:00:24;;;;;;;11.80;6.73;;;18.10;82.90;;;;;;6275808;22;20429;-74
2022/03/19 07:02:53;;;;;;;18.13;6.97;;;18.80;79.30;;;;;;6275733;22;20439;-73
2022/03/19 07:05:24;;;;;;;14.10;6.33;;;19.60;76.50;;;;;;6275705;22;20434;-72
2022/03/19 07:07:52;;;;;;;12.53;6.00;;;20.40;73.50;;;;;;6276124;22;20445;-72
2022/03/19 07:10:19;;;;;;;13.63;5.80;;;20.80;70.80;;;;;;6275145;22;20400;-73
2022/03/19 07:12:49;;;;;;;14.57;6.80;;;21.20;68.80;;;;;;6275799;22;20381;-74
2022/03/19 07:15:17;;;;;;;12.50;6.20;;;21.60;67.30;;;;;;6276306;22;20432;-74
2022/03/19 07:17:45;;;;;;;14.83;5.43;;;21.60;66.50;;;;;;6276126;22;20780;-73
2022/03/19 07:20:15;;;;;;;10.60;5.80;;;21.60;65.70;;;;;;6274906;22;20461;-73
2022/03/19 07:22:49;;;;;;;11.57;6.20;;;21.80;64.60;;;;;;6275925;22;20417;-73
2022/03/19 07:25:18;;;;;;;13.53;6.33;;;22.00;63.50;;;;;;6275990;22;20503;-73
2022/03/19 07:27:47;;;;;;;21.03;7.43;;;22.30;62.90;;;;;;6277222;22;20396;-71
2022/03/19 07:30:21;;;;;;;10.93;6.10;;;22.20;61.50;;;;;;6277119;22;20417;-75
2022/03/19 07:32:48;;;;;;;12.77;6.10;;;22.20;61.60;;;;;;6285129;22;20435;-69
2022/03/19 07:35:16;;;;;;;10.50;5.60;;;22.10;62.20;;;;;;6283191;22;20482;-72
2022/03/19 07:37:44;;;;;;;11.90;6.43;;;22.40;62.10;;;;;;6277579;22;20397;-70
2022/03/19 07:40:13;;;;;;;10.50;6.23;;;22.60;61.60;;;;;;6276361;22;20461;-69
2022/03/19 07:42:39;;;;;;;11.03;5.77;;;22.40;60.10;;;;;;6277149;22;20432;-69
2022/03/19 07:45:09;;;;;;;13.43;6.10;;;22.20;61.00;;;;;;6276758;22;20771;-72
2022/03/19 07:47:36;;;;;;;11.20;6.10;;;22.30;59.80;;;;;;6277081;22;20393;-68
2022/03/19 07:50:04;;;;;;;14.87;7.30;;;22.30;60.40;;;;;;6275845;22;20760;-69
2022/03/19 07:52:33;;;;;;;10.53;5.67;;;22.30;60.00;;;;;;6276836;22;20408;-70
2022/03/19 07:55:00;;;;;;;21.73;6.67;;;22.00;59.90;;;;;;6277009;22;20425;-69
2022/03/19 07:57:27;;;;;;;17.70;6.70;;;21.90;59.70;;;;;;6277209;22;20439;-69
2022/03/19 07:59:54;;;;;;;14.13;6.57;;;21.90;59.70;;;;;;6276368;22;20442;-68
2022/03/19 08:02:22;;;;;;;12.07;7.00;;;22.10;59.90;;;;;;6277172;22;20431;-70
2022/03/19 08:04:49;;;;;;;13.40;5.80;;;22.20;60.00;;;;;;6276363;22;20848;-69
2022/03/19 08:07:16;;;;;;;9.55;5.40;;;22.60;59.30;;;;;;6276469;22;20869;-73
2022/03/19 08:09:43;;;;;;;14.10;6.40;;;23.00;58.20;;;;;;6276187;22;20237;-71
2022/03/19 08:12:10;;;;;;;7.40;4.80;;;23.10;57.60;;;;;;6277121;22;20389;-71
2022/03/19 08:14:38;;;;;;;9.10;4.97;;;23.20;57.90;;;;;;6276967;22;20425;-76
2022/03/19 08:17:05;;;;;;;10.70;5.10;;;23.70;57.40;;;;;;6277934;22;20424;-78
2022/03/19 08:19:34;;;;;;;12.47;5.37;;;23.70;57.30;;;;;;6276609;22;20799;-75
2022/03/19 08:22:02;;;;;;;9.07;5.40;;;23.20;57.00;;;;;;6277383;22;20425;-78
2022/03/19 08:24:29;;;;;;;11.83;4.97;;;22.80;57.00;;;;;;6277066;22;20433;-75
2022/03/19 08:26:56;;;;;;;7.57;3.50;;;23.00;57.00;;;;;;6276949;22;20472;-77
2022/03/19 08:29:25;;;;;;;8.63;4.47;;;22.30;57.30;;;;;;6277285;22;20409;-71
2022/03/19 08:31:53;;;;;;;8.93;3.60;;;22.20;57.40;;;;;;6276042;22;20752;-70
2022/03/19 08:34:20;;;;;;;11.57;4.20;;;22.40;58.00;;;;;;6276653;22;20432;-71
2022/03/19 08:36:48;;;;;;;7.30;4.67;;;23.00;57.30;;;;;;6277224;22;20447;-74
2022/03/19 08:42:01;;;;;;;8.13;3.83;;;23.30;55.20;;;;;;6276753;22;20462;-71
2022/03/19 08:44:28;;;;;;;10.23;3.30;;;22.80;56.40;;;;;;6276849;22;20464;-75
2022/03/19 08:46:55;;;;;;;8.00;3.10;;;23.60;56.30;;;;;;6276836;22;20409;-75
2022/03/19 08:49:23;;;;;;;5.70;3.20;;;23.40;54.80;;;;;;6276853;22;20401;-75
2022/03/19 08:51:52;;;;;;;9.23;4.10;;;23.40;56.00;;;;;;6275881;22;20396;-72
2022/03/19 08:54:20;;;;;;;7.60;3.77;;;23.80;55.20;;;;;;6276092;22;20421;-71
2022/03/19 08:56:49;;;;;;;9.20;3.10;;;24.40;54.90;;;;;;6276241;22;20421;-71
2022/03/19 08:59:21;;;;;;;7.07;3.30;;;23.40;52.80;;;;;;6276270;22;20451;-73
2022/03/19 09:01:49;;;;;;;6.37;2.97;;;22.20;54.60;;;;;;6269002;22;20428;-71
2022/03/19 09:04:17;;;;;;;6.27;2.83;;;22.20;55.60;;;;;;6261311;22;20472;-71
2022/03/19 09:06:45;;;;;;;7.93;2.60;;;21.80;55.30;;;;;;6269431;22;20416;-72
2022/03/19 09:09:17;;;;;;;6.40;2.97;;;21.60;55.40;;;;;;6267808;22;20440;-70
2022/03/19 09:11:45;;;;;;;8.63;3.20;;;21.40;56.00;;;;;;6267589;22;20382;-71
2022/03/19 09:14:12;;;;;;;7.32;3.28;;;21.20;56.00;;;;;;6268670;22;20478;-73
2022/03/19 09:16:40;;;;;;;4.97;2.67;;;21.70;56.10;;;;;;6269490;22;20624;-75
2022/03/19 09:19:07;;;;;;;4.73;2.33;;;22.30;56.10;;;;;;6269572;22;20435;-71
2022/03/19 09:21:34;;;;;;;6.27;2.87;;;22.20;55.90;;;;;;6269094;22;20512;-74
2022/03/19 09:24:01;;;;;;;4.40;1.87;;;22.80;55.80;;;;;;6268262;22;20428;-77
2022/03/19 09:26:30;;;;;;;9.53;3.30;;;23.10;55.20;;;;;;6269688;22;20420;-76
2022/03/19 09:28:57;;;;;;;5.50;2.43;;;23.30;53.90;;;;;;6268954;22;20405;-73
2022/03/19 09:31:25;;;;;;;8.53;3.03;;;23.10;55.00;;;;;;6268041;22;20412;-72
2022/03/19 09:33:52;;;;;;;6.93;3.80;;;23.80;54.70;;;;;;6268974;22;20775;-75
2022/03/19 09:36:19;;;;;;;8.67;2.80;;;24.40;53.20;;;;;;6269300;22;20469;-76
2022/03/19 09:38:47;;;;;;;5.23;2.13;;;24.10;52.80;;;;;;6268882;22;20472;-75
2022/03/19 09:41:14;;;;;;;9.60;2.97;;;24.20;52.90;;;;;;6269173;22;20508;-72
2022/03/19 09:43:43;;;;;;;6.33;2.30;;;24.70;52.40;;;;;;6270019;22;20508;-73
2022/03/19 09:46:11;;;;;;;5.10;2.13;;;23.60;52.40;;;;;;6270369;22;20440;-72
2022/03/19 09:48:38;;;;;;;9.97;2.60;;;23.90;53.00;;;;;;6270788;22;20843;-70
2022/03/19 09:51:09;;;;;;;9.00;2.50;;;23.60;52.60;;;;;;6269507;22;20416;-74
2022/03/19 09:53:45;;;;;;;7.20;2.47;;;23.80;52.20;;;;;;6271302;22;20519;-74
2022/03/19 09:56:11;;;;;;;5.63;2.00;;;23.30;52.80;;;;;;6271617;22;20397;-72
2022/03/19 09:59:15;;;;;;;8.10;2.50;;;22.80;52.60;;;;;;6272328;22;20428;-74
2022/03/19 10:01:42;;;;;;;7.90;2.37;;;22.70;53.00;;;;;;6270887;22;20787;-74
2022/03/19 10:04:11;;;;;;;2.80;1.67;;;22.20;53.80;;;;;;6271221;22;20763;-72
2022/03/19 10:09:42;;;;;;;8.47;2.70;;;21.30;54.30;;;;;;6269212;22;20407;-72
2022/03/19 10:12:14;;;;;;;6.53;2.13;;;21.60;55.20;;;;;;6270193;22;20412;-71
2022/03/19 10:14:45;;;;;;;4.83;1.97;;;21.90;55.70;;;;;;6269568;22;20435;-71
2022/03/19 10:17:26;;;;;;;5.83;2.13;;;22.20;55.30;;;;;;6270967;22;20816;-72
2022/03/19 10:19:54;;;;;;;4.70;2.60;;;22.20;55.00;;;;;;6275580;22;20385;-72
2022/03/19 10:22:29;;;;;;;18.00;2.27;;;22.10;54.40;;;;;;6270665;22;20516;-70
2022/03/19 10:24:59;;;;;;;7.57;2.57;;;21.50;54.00;;;;;;6270359;22;20443;-73
2022/03/19 10:27:26;;;;;;;7.97;2.57;;;20.70;54.70;;;;;;6271094;22;20471;-70
2022/03/19 10:30:20;;;;;;;6.20;2.67;;;19.80;55.80;;;;;;6270153;22;20753;-74
2022/03/19 10:32:49;;;;;;;3.83;2.30;;;20.10;56.00;;;;;;6272613;22;20388;-74
2022/03/19 10:35:33;;;;;;;6.27;1.63;;;20.30;56.20;;;;;;6270556;22;20463;-73
2022/03/19 10:38:05;;;;;;;4.57;1.67;;;19.90;55.50;;;;;;6270656;22;20400;-73
2022/03/19 10:40:45;;;;;;;5.20;3.60;;;19.20;55.30;;;;;;6269961;22;21734;-71
2022/03/19 10:43:13;;;;;;;4.30;1.87;;;18.40;57.20;;;;;;6269913;22;20741;-71
2022/03/19 10:45:49;;;;;;;7.83;2.50;;;17.70;59.00;;;;;;6270633;22;20419;-71
2022/03/19 10:48:19;;;;;;;3.50;1.90;;;17.20;59.20;;;;;;6271878;22;20418;-73
2022/03/19 10:50:46;;;;;;;8.07;2.40;;;16.70;59.90;;;;;;6271568;22;20420;-72
2022/03/19 10:53:15;;;;;;;5.30;2.10;;;16.10;61.50;;;;;;6273695;22;20187;-72
2022/03/19 10:55:43;;;;;;;7.75;2.67;;;15.60;62.50;;;;;;6274785;22;20237;-70
2022/03/19 10:58:10;;;;;;;8.85;1.80;;;15.50;63.70;;;;;;6274440;22;20170;-73
2022/03/19 11:00:37;;;;;;;5.45;2.67;;;15.40;64.30;;;;;;6268510;22;20190;-73
2022/03/19 11:03:16;;;;;;;6.15;2.13;;;15.30;65.30;;;;;;6269856;22;20189;-73
2022/03/19 11:05:45;;;;;;;6.38;2.40;;;15.10;65.30;;;;;;6242132;22;20190;-72
2022/03/19 11:08:16;;;;;;;8.18;3.35;;;15.00;66.00;;;;;;6269845;22;20163;-73
2022/03/19 11:10:43;;;;;;;8.13;2.28;;;15.00;68.80;;;;;;6270365;22;20166;-72
2022/03/19 11:13:16;;;;;;;6.15;2.20;;;14.90;67.30;;;;;;6270949;22;20163;-73
2022/03/19 11:15:44;;;;;;;4.78;2.30;;;14.90;68.20;;;;;;6269807;22;20167;-73
2022/03/19 11:18:13;;;;;;;4.93;3.17;;;15.20;68.40;;;;;;6270939;22;20261;-73
2022/03/19 11:20:44;;;;;;;10.73;3.00;;;15.30;67.00;;;;;;6269443;22;20624;-71
2022/03/19 11:23:15;;;;;;;3.25;1.80;;;14.90;66.70;;;;;;6269734;22;20163;-74
2022/03/19 11:25:48;;;;;;;5.22;1.83;;;15.00;67.90;;;;;;6270323;22;20530;-71
2022/03/19 11:28:16;;;;;;;7.88;1.73;;;14.90;68.40;;;;;;6243232;22;20240;-77
2022/03/19 11:31:00;;;;;;;4.00;1.80;;;14.90;68.10;;;;;;6269387;22;20166;-73
2022/03/19 11:33:31;;;;;;;4.30;1.60;;;14.80;67.00;;;;;;6270785;22;20537;-75
2022/03/19 11:36:07;;;;;;;5.60;1.95;;;14.80;68.10;;;;;;6271161;22;20237;-74
2022/03/19 11:38:40;;;;;;;6.20;2.00;;;14.50;68.40;;;;;;6271311;22;20288;-73
2022/03/19 11:41:23;;;;;;;5.03;1.75;;;14.30;71.10;;;;;;6269787;22;20238;-72
2022/03/19 11:43:50;;;;;;;4.78;2.20;;;14.30;69.30;;;;;;6271090;22;20201;-73
2022/03/19 11:46:18;;;;;;;4.70;1.52;;;14.00;68.90;;;;;;6274602;22;20159;-72
2022/03/19 11:48:50;;;;;;;3.85;1.80;;;14.20;71.00;;;;;;6279717;22;20163;-73
2022/03/19 11:51:20;;;;;;;4.05;1.77;;;14.10;68.90;;;;;;6280699;22;20221;-72
2022/03/19 11:53:55;;;;;;;3.85;1.73;;;14.10;68.30;;;;;;6281697;22;20198;-75
2022/03/19 11:56:23;;;;;;;10.52;3.38;;;13.90;68.20;;;;;;6282963;22;20193;-72
2022/03/19 11:58:51;;;;;;;3.90;1.50;;;14.00;67.90;;;;;;6282113;22;20162;-73
2022/03/19 12:01:18;;;;;;;2.90;1.80;;;14.10;67.80;;;;;;6277364;22;20260;-72
2022/03/19 12:04:11;;;;;;;3.33;1.48;;;13.90;65.80;;;;;;6276067;22;20666;-73
2022/03/19 12:06:40;;;;;;;8.00;2.20;;;13.90;66.30;;;;;;6276847;22;20166;-74
2022/03/19 12:09:08;;;;;;;5.57;1.83;;;13.90;65.80;;;;;;6277849;22;20158;-73
2022/03/19 12:11:36;;;;;;;2.95;1.73;;;13.80;66.30;;;;;;6276862;22;20237;-73
2022/03/19 12:14:10;;;;;;;5.93;1.73;;;13.70;67.40;;;;;;6276826;22;20240;-75
2022/03/19 12:16:41;;;;;;;2.20;1.40;;;13.60;67.20;;;;;;6276973;22;20657;-73
2022/03/19 12:19:10;;;;;;;2.05;1.35;;;13.60;67.80;;;;;;6277114;22;20193;-73
2022/03/19 12:21:41;;;;;;;6.75;2.10;;;13.70;67.70;;;;;;6275888;22;20189;-73
2022/03/19 12:24:39;;;;;;;6.10;3.30;;;13.70;67.80;;;;;;6277112;22;20205;-74
2022/03/19 12:27:07;;;;;;;6.85;3.67;;;13.70;69.60;;;;;;6276797;22;20557;-72
2022/03/19 12:29:34;;;;;;;7.00;1.63;;;13.70;67.40;;;;;;6276578;22;20262;-73
2022/03/19 12:32:05;;;;;;;4.15;1.80;;;13.60;67.50;;;;;;6277761;22;20161;-74
2022/03/19 12:34:33;;;;;;;8.40;2.75;;;13.60;66.00;;;;;;6277727;22;20256;-73
2022/03/19 12:37:04;;;;;;;11.43;3.95;;;13.70;68.10;;;;;;6277612;22;20166;-71
2022/03/19 12:39:31;;;;;;;6.55;3.13;;;13.80;70.40;;;;;;6276224;22;20566;-72
2022/03/19 12:41:58;;;;;;;5.47;3.08;;;13.80;70.90;;;;;;6261190;22;20245;-73
2022/03/19 12:44:27;;;;;;;4.47;2.05;;;13.90;70.30;;;;;;6245580;22;20230;-73
2022/03/19 12:46:57;;;;;;;4.20;1.65;;;13.80;66.10;;;;;;6245954;23;20578;-72
2022/03/19 12:49:24;;;;;;;3.53;1.70;;;13.80;64.60;;;;;;6246136;23;20190;-75
2022/03/19 12:51:52;;;;;;;3.20;1.48;;;13.80;64.70;;;;;;6245764;23;20187;-73
2022/03/19 12:54:21;;;;;;;8.38;1.77;;;13.60;65.00;;;;;;6246392;22;20230;-73
2022/03/19 12:56:49;;;;;;;2.15;1.10;;;13.60;66.00;;;;;;6246000;22;20593;-71
2022/03/19 12:59:19;;;;;;;3.75;1.40;;;13.70;67.20;;;;;;6245286;22;20163;-72
2022/03/19 13:01:47;;;;;;;3.95;1.75;;;13.90;68.00;;;;;;6245193;23;20282;-74
2022/03/19 13:04:21;;;;;;;6.90;1.80;;;14.00;67.50;;;;;;6245998;22;20256;-76
2022/03/19 13:06:48;;;;;;;5.88;1.50;;;14.10;66.60;;;;;;6246296;22;20274;-75
2022/03/19 13:09:15;;;;;;;4.47;2.45;;;13.90;63.20;;;;;;6245483;23;20166;-72